Terminal Aerodrome Forecast
Issued by NWS

Home | Current Version | Previous Version | Text Only | Print | Product List | Glossary On
Versions: 1 2 3 4 5 6 7 8 9 10 11 12 13 14 15
000
FTUS46 KLOX 062342
TAFPMD
TAF
KPMD 062342Z 0700/0724 25018G24KT P6SM SCT060 SCT200
     FM070200 23014KT P6SM VCSH SCT040
     FM070800 24012KT P6SM SCT040
     FM071500 22015G20KT P6SM SCT050 SCT250
     FM072000 24017G24KT P6SM VCTS SCT040CB BKN070=

USA.gov is the U.S. government's official web portal to all federal, state and local government web resources and services.